METAR AND TAF INFORMATION
METAR FOR KRSW
ADDS - METARS form results

(2152 UTC 12 August 2020)
Data provider http://aviationweather.gov/metar/data/
 
METAR text: KRSW 122145Z 21006KT 10SM TS FEW049 SCT070 BKN100 30/24 A2996 RMK AO2 LTG DSNT N AND NW TSB39 T03000244
Conditions at: KRSW (FORT MYERS , FL, US) observed 2145 UTC 12 August 2020
Temperature: 30.0°C (86°F)
Dewpoint: 24.4°C (76°F) [RH = 72%]
Pressure (altimeter): 29.96 inches Hg (1014.6 mb)
Winds: from the SSW (210 degrees) at 7 MPH (6 knots; 3.1 m/s)
Visibility: 10 or more miles (16+ km)
Ceiling: 10000 feet AGL
Clouds: few clouds at 4900 feet AGL
scattered clouds at 7000 feet AGL
broken clouds at 10000 feet AGL
Weather: TS  (thunderstorm)

METAR text: KRSW 122127Z 20007KT 10SM VCTS BKN048 BKN100 30/24 A2996 RMK AO2 LTG DSNT N T03000244
Conditions at: KRSW (FORT MYERS , FL, US) observed 2127 UTC 12 August 2020
Temperature: 30.0°C (86°F)
Dewpoint: 24.4°C (76°F) [RH = 72%]
Pressure (altimeter): 29.96 inches Hg (1014.6 mb)
Winds: from the SSW (200 degrees) at 8 MPH (7 knots; 3.6 m/s)
Visibility: 10 or more miles (16+ km)
Ceiling: 4800 feet AGL
Clouds: broken clouds at 4800 feet AGL
broken clouds at 10000 feet AGL
Weather: VCTS  (thunderstorm in vicinity)

METAR text: KRSW 122053Z 24009KT 10SM CLR 29/23 A2996 RMK AO2 LTG DSNT W AND NW TSE26 SLP143 T02940233 58006
Conditions at: KRSW (FORT MYERS , FL, US) observed 2053 UTC 12 August 2020
Temperature: 29.4°C (85°F)
Dewpoint: 23.3°C (74°F) [RH = 70%]
Pressure (altimeter): 29.96 inches Hg (1014.6 mb)
[Sea-level pressure: 1014.3 mb]
Winds: from the WSW (240 degrees) at 10 MPH (9 knots; 4.6 m/s)
Visibility: 10 or more miles (16+ km)
Ceiling: at least 12,000 feet AGL
Clouds: sky clear below 12,000 feet AGL
Weather: no significant weather observed at this time

Forecast for: KRSW (FORT MYERS , FL, US)
Text: KRSW 121722Z 1218/1318 14006KT P6SM VCTS SCT040CB BKN250
Forecast period: 1800 to 2100 UTC 12 August 2020
Forecast type: FROM: standard forecast or significant change
Winds: from the SE (140 degrees) at 7 MPH (6 knots; 3.1 m/s)
Visibility: 6 or more miles (10+ km)
Ceiling: 25000 feet AGL
Clouds: scattered clouds at 4000 feet AGL
broken clouds at 25000 feet AGL
Weather: VCTS  (thunderstorm in vicinity)
Text: FM122100 17007KT P6SM VCTS SCT040CB BKN250
Forecast period: 2100 UTC 12 August 2020 to 0000 UTC 13 August 2020
Forecast type: FROM: standard forecast or significant change
Winds: from the S (170 degrees) at 8 MPH (7 knots; 3.6 m/s)
Visibility: 6 or more miles (10+ km)
Ceiling: 25000 feet AGL
Clouds: scattered clouds at 4000 feet AGL
broken clouds at 25000 feet AGL
Weather: VCTS  (thunderstorm in vicinity)
Text: FM130000 VRB03KT P6SM FEW030 SCT250
Forecast period: 0000 to 1700 UTC 13 August 2020
Forecast type: FROM: standard forecast or significant change
Winds: variable direction winds at 3 MPH (3 knots; 1.5 m/s)
Visibility: 6 or more miles (10+ km)
Ceiling: at least 12,000 feet AGL
Clouds: few clouds at 3000 feet AGL
scattered clouds at 25000 feet AGL
Weather: no significant weather forecast for this period
Text: FM131700 14006KT P6SM VCTS SCT030CB BKN250
Forecast period: 1700 to 1800 UTC 13 August 2020
Forecast type: FROM: standard forecast or significant change
Winds: from the SE (140 degrees) at 7 MPH (6 knots; 3.1 m/s)
Visibility: 6 or more miles (10+ km)
Ceiling: 25000 feet AGL
Clouds: scattered clouds at 3000 feet AGL
broken clouds at 25000 feet AGL
Weather: VCTS  (thunderstorm in vicinity)

 AIRPORT MAP

 RUNWAY INFORMATION
Runway 06 Runway length 12000 ft Runway width 150 ft
Runway elevation 27 ft Runway displaced threshold 0 ft Runway heading 54
Runway 24 Runway length 12000 ft Runway width 150 ft
Runway elevation 30 ft Runway displaced threshold 0 ft Runway heading 234

 AIRPORT FREQUENCIES
Type A/D Name FORT MYERS Frequency 119.75 MHZ
Type ATIS Name ATIS Frequency 124.65 MHZ
Type CLD Name CLNC DEL Frequency 132.075 MHZ
Type GND Name GND Frequency 121.9 MHZ
Type TWR Name FORT MYERS Frequency 128.75 MHZ
Type UNIC Name CTAF/UNICO Frequency 122.95 MHZ

 AIRPORT NEAR NAVIGATION AIDS
Type NDB Name Muffe Frequency 336 KHZ



Powered by Virtual Airlines Manager [v2.6.2]